createdAt,value
2017-11-21T00:00:24.323Z,11.43
2017-11-21T00:02:51.954Z,10.00
2017-11-21T00:05:19.575Z,7.07
2017-11-21T00:07:47.281Z,9.07
2017-11-21T00:10:14.907Z,10.53
2017-11-21T00:12:42.541Z,9.73
2017-11-21T00:15:10.228Z,9.03
2017-11-21T00:17:37.853Z,8.50
2017-11-21T00:20:05.492Z,10.17
2017-11-21T00:22:33.594Z,9.03
2017-11-21T00:25:01.226Z,13.27
2017-11-21T00:27:28.858Z,11.67
2017-11-21T00:29:56.561Z,11.67
2017-11-21T00:32:24.210Z,13.57
2017-11-21T00:34:51.839Z,13.20
2017-11-21T00:37:20.391Z,13.57
2017-11-21T00:39:48.012Z,12.67
2017-11-21T00:42:15.651Z,12.33
2017-11-21T00:44:43.362Z,12.30
2017-11-21T00:47:10.996Z,12.17
2017-11-21T00:49:38.629Z,12.37
2017-11-21T00:54:48.660Z,13.48
2017-11-21T00:57:17.320Z,12.03
2017-11-21T00:59:45.795Z,12.33
2017-11-21T01:02:13.431Z,11.83
2017-11-21T01:07:19.978Z,14.75
2017-11-21T01:09:47.700Z,13.07
2017-11-21T01:12:15.339Z,12.13
2017-11-21T01:14:43.916Z,13.50
2017-11-21T01:17:11.600Z,13.13
2017-11-21T01:19:39.236Z,12.23
2017-11-21T01:22:06.875Z,12.10
2017-11-21T01:24:34.651Z,12.57
2017-11-21T01:27:02.277Z,13.30
2017-11-21T01:29:29.919Z,13.30
2017-11-21T01:31:57.637Z,12.20
2017-11-21T01:34:25.272Z,11.60
2017-11-21T01:36:52.904Z,11.33
2017-11-21T01:39:22.734Z,11.03
2017-11-21T01:41:49.326Z,12.37
2017-11-21T01:44:16.970Z,12.43
2017-11-21T01:46:44.649Z,13.03
2017-11-21T01:49:12.274Z,11.30
2017-11-21T01:51:39.909Z,11.40
2017-11-21T01:54:07.635Z,10.97
2017-11-21T01:56:35.274Z,11.03
2017-11-21T01:59:02.913Z,11.00
2017-11-21T02:01:30.597Z,11.50
2017-11-21T02:03:58.235Z,11.10
2017-11-21T02:06:25.863Z,10.33
2017-11-21T02:08:53.587Z,10.33
2017-11-21T02:11:21.240Z,10.70
2017-11-21T02:16:28.401Z,12.73
2017-11-21T02:18:56.895Z,10.00
2017-11-21T02:21:24.527Z,10.07
2017-11-21T02:23:52.217Z,11.07
2017-11-21T02:26:19.859Z,10.63
2017-11-21T02:28:47.507Z,10.77
2017-11-21T02:31:15.180Z,10.93
2017-11-21T02:33:42.827Z,10.50
2017-11-21T02:36:13.419Z,10.47
2017-11-21T02:38:41.111Z,9.47
2017-11-21T02:41:08.752Z,9.40
2017-11-21T02:43:36.389Z,9.90
2017-11-21T02:46:04.088Z,10.50
2017-11-21T02:48:31.725Z,11.53
2017-11-21T02:50:59.387Z,12.03
2017-11-21T02:53:27.093Z,11.07
2017-11-21T02:55:54.732Z,11.03
2017-11-21T02:58:22.370Z,9.70
2017-11-21T03:00:50.052Z,10.37
2017-11-21T03:03:17.698Z,9.37
2017-11-21T03:05:45.332Z,9.57
2017-11-21T03:08:13.043Z,10.23
2017-11-21T03:10:40.674Z,10.47
2017-11-21T03:13:08.316Z,10.03
2017-11-21T03:15:35.996Z,10.30
2017-11-21T03:18:03.650Z,10.40
2017-11-21T03:20:43.182Z,10.37
2017-11-21T03:23:22.561Z,11.07
2017-11-21T03:26:01.982Z,10.20
2017-11-21T03:28:39.380Z,11.70
2017-11-21T03:31:07.102Z,10.17
2017-11-21T03:33:34.722Z,10.50
2017-11-21T03:36:02.365Z,11.93
2017-11-21T03:41:11.696Z,17.37
2017-11-21T03:43:39.378Z,11.87
2017-11-21T03:46:07.010Z,11.20
2017-11-21T03:48:34.650Z,11.80
2017-11-21T03:51:02.363Z,11.50
2017-11-21T03:53:29.998Z,10.00
2017-11-21T03:56:00.567Z,11.50
2017-11-21T03:58:28.268Z,12.20
2017-11-21T04:01:00.245Z,11.77
2017-11-21T04:03:27.889Z,14.17
2017-11-21T04:05:55.619Z,13.17
2017-11-21T04:11:05.795Z,14.27
2017-11-21T04:13:33.424Z,11.90
2017-11-21T04:16:01.066Z,13.37
2017-11-21T04:18:28.772Z,13.27
2017-11-21T04:20:56.412Z,13.67
2017-11-21T04:23:24.051Z,14.97
2017-11-21T04:25:51.751Z,18.17
2017-11-21T04:28:19.392Z,20.60
2017-11-21T04:30:47.020Z,17.83
2017-11-21T04:33:14.709Z,16.60
2017-11-21T04:35:42.402Z,15.47
2017-11-21T04:38:09.999Z,16.20
2017-11-21T04:40:37.705Z,16.53
2017-11-21T04:43:05.356Z,14.13
2017-11-21T04:45:32.973Z,16.43
2017-11-21T04:48:00.698Z,15.77
2017-11-21T04:50:28.340Z,14.80
2017-11-21T04:52:55.980Z,18.00
2017-11-21T04:55:23.673Z,18.80
2017-11-21T04:57:51.309Z,16.43
2017-11-21T05:00:18.960Z,17.63
2017-11-21T05:02:46.636Z,17.03
2017-11-21T05:05:15.103Z,17.70
2017-11-21T05:07:42.734Z,16.07
2017-11-21T05:10:10.447Z,18.57
2017-11-21T05:12:38.086Z,18.93
2017-11-21T05:15:05.714Z,18.67
2017-11-21T05:17:33.408Z,18.77
2017-11-21T05:20:01.045Z,16.67
2017-11-21T05:22:28.697Z,17.17
2017-11-21T05:24:56.418Z,19.40
2017-11-21T05:27:24.091Z,17.77
2017-11-21T05:29:51.692Z,15.77
2017-11-21T05:35:15.078Z,17.02
2017-11-21T05:37:41.141Z,14.20
2017-11-21T05:40:08.767Z,12.57
2017-11-21T05:42:36.415Z,11.90
2017-11-21T05:45:04.121Z,14.77
2017-11-21T05:47:31.763Z,14.20
2017-11-21T05:49:59.408Z,17.00
2017-11-21T05:52:27.115Z,18.17
2017-11-21T05:54:54.761Z,16.80
2017-11-21T05:57:22.380Z,15.43
2017-11-21T05:59:50.473Z,16.90
2017-11-21T06:02:18.949Z,15.00
2017-11-21T06:04:46.583Z,15.27
2017-11-21T06:07:14.291Z,16.17
2017-11-21T06:09:41.924Z,16.03
2017-11-21T06:12:11.612Z,16.87
2017-11-21T06:14:37.295Z,15.27
2017-11-21T06:17:04.932Z,16.07
2017-11-21T06:19:32.564Z,15.30
2017-11-21T06:22:00.284Z,17.47
2017-11-21T06:24:27.900Z,15.80
2017-11-21T06:26:55.599Z,15.50
2017-11-21T06:29:23.310Z,18.07
2017-11-21T06:31:50.969Z,19.50
2017-11-21T06:34:18.630Z,16.37
2017-11-21T06:36:46.359Z,16.17
2017-11-21T06:39:14.027Z,15.93
2017-11-21T06:41:41.688Z,18.37
2017-11-21T06:44:10.612Z,17.27
2017-11-21T06:46:39.073Z,17.17
2017-11-21T06:49:06.689Z,19.37
2017-11-21T06:51:34.395Z,16.93
2017-11-21T06:54:02.056Z,17.50
2017-11-21T06:59:08.886Z,20.00
2017-11-21T07:01:37.540Z,16.73
2017-11-21T07:04:06.731Z,14.27
2017-11-21T07:06:34.467Z,16.30
2017-11-21T07:09:03.343Z,18.33
2017-11-21T07:11:30.996Z,19.13
2017-11-21T07:16:39.303Z,23.08
2017-11-21T07:19:07.430Z,15.00
2017-11-21T07:21:35.604Z,15.20
2017-11-21T07:24:03.261Z,16.33
2017-11-21T07:26:31.006Z,16.40
2017-11-21T07:31:27.700Z,15.90
2017-11-21T07:33:55.847Z,18.20
2017-11-21T07:36:24.930Z,20.63
2017-11-21T07:38:53.126Z,15.93
2017-11-21T07:41:22.326Z,18.93
2017-11-21T07:43:50.921Z,19.60
2017-11-21T07:46:18.604Z,18.70
2017-11-21T07:48:47.546Z,18.80
2017-11-21T07:51:15.710Z,18.23
2017-11-21T07:53:43.897Z,17.53
2017-11-21T07:56:12.065Z,17.73
2017-11-21T07:58:39.720Z,16.67
2017-11-21T08:01:07.370Z,17.33
2017-11-21T08:03:35.083Z,17.57
2017-11-21T08:06:03.228Z,17.30
2017-11-21T08:08:30.910Z,16.70
2017-11-21T08:10:59.575Z,16.53
2017-11-21T08:13:27.234Z,14.63
2017-11-21T08:15:55.394Z,15.10
2017-11-21T08:18:23.563Z,15.80
2017-11-21T08:20:52.559Z,12.37
2017-11-21T08:23:20.196Z,11.73
2017-11-21T08:25:48.892Z,12.90
2017-11-21T08:28:17.998Z,14.13
2017-11-21T08:30:46.523Z,14.23
2017-11-21T08:33:14.242Z,13.77
2017-11-21T08:35:43.339Z,14.00
2017-11-21T08:40:50.696Z,15.70
2017-11-21T08:43:18.352Z,12.70
2017-11-21T08:45:46.275Z,14.67
2017-11-21T08:48:13.981Z,14.93
2017-11-21T08:50:41.655Z,13.63
2017-11-21T08:53:09.325Z,10.97
2017-11-21T08:55:37.044Z,9.83
2017-11-21T08:58:04.698Z,10.90
2017-11-21T09:00:32.377Z,10.67
2017-11-21T09:03:00.083Z,11.27
2017-11-21T09:05:27.741Z,10.90
2017-11-21T09:07:55.386Z,12.03
2017-11-21T09:10:23.599Z,11.27
2017-11-21T09:12:52.587Z,11.67
2017-11-21T09:15:21.208Z,13.93
2017-11-21T09:17:48.902Z,13.70
2017-11-21T09:20:16.573Z,14.23
2017-11-21T09:22:44.212Z,13.40
2017-11-21T09:25:11.930Z,13.53
2017-11-21T09:27:40.076Z,15.67
2017-11-21T09:30:07.732Z,13.90
2017-11-21T09:32:35.449Z,14.77
2017-11-21T09:35:04.087Z,15.40
2017-11-21T09:40:12.865Z,15.15
2017-11-21T09:42:42.026Z,14.70
2017-11-21T09:45:09.675Z,13.63
2017-11-21T09:47:38.379Z,14.13
2017-11-21T09:50:06.058Z,15.30
2017-11-21T09:52:34.564Z,14.40
2017-11-21T09:55:02.270Z,15.57
2017-11-21T09:57:30.460Z,14.63
2017-11-21T09:59:58.988Z,14.10
2017-11-21T10:02:26.718Z,16.23
2017-11-21T10:04:54.853Z,16.27
2017-11-21T10:07:22.548Z,17.23
2017-11-21T10:09:51.496Z,16.33
2017-11-21T10:12:19.187Z,17.30
2017-11-21T10:14:46.840Z,17.20
2017-11-21T10:17:14.567Z,17.27
2017-11-21T10:19:42.240Z,18.00
2017-11-21T10:22:09.897Z,16.33
2017-11-21T10:27:19.793Z,9.43
2017-11-21T10:29:47.536Z,9.23
2017-11-21T10:32:15.711Z,12.23
2017-11-21T10:34:44.171Z,11.33
2017-11-21T10:37:11.883Z,10.13
2017-11-21T10:39:39.539Z,11.33
2017-11-21T10:42:07.208Z,11.33
2017-11-21T10:44:34.938Z,10.23
2017-11-21T10:47:02.593Z,8.30
2017-11-21T10:49:30.278Z,8.40
2017-11-21T10:51:57.963Z,8.73
2017-11-21T10:54:26.063Z,9.70
2017-11-21T10:56:53.704Z,9.27
2017-11-21T10:59:21.459Z,9.00
2017-11-21T11:01:49.110Z,9.77
2017-11-21T11:04:16.802Z,10.17
2017-11-21T11:06:44.898Z,10.70
2017-11-21T11:09:12.571Z,10.77
2017-11-21T11:11:40.245Z,12.40
2017-11-21T11:14:08.400Z,14.00
2017-11-21T11:16:36.569Z,12.07
2017-11-21T11:19:05.221Z,12.67
2017-11-21T11:21:33.759Z,12.23
2017-11-21T11:24:02.246Z,12.50
2017-11-21T11:26:29.908Z,10.90
2017-11-21T11:28:57.602Z,10.23
2017-11-21T11:31:25.808Z,10.83
2017-11-21T11:33:53.945Z,11.20
2017-11-21T11:36:21.518Z,11.33
2017-11-21T11:38:50.037Z,12.73
2017-11-21T11:41:17.694Z,12.27
2017-11-21T11:43:45.455Z,12.97
2017-11-21T11:46:13.104Z,14.63
2017-11-21T11:48:40.769Z,13.80
2017-11-21T11:53:47.620Z,16.00
2017-11-21T11:56:15.327Z,14.90
2017-11-21T11:58:43.009Z,15.20
2017-11-21T12:01:10.676Z,16.30
2017-11-21T12:03:38.400Z,16.30
2017-11-21T12:06:06.058Z,15.10
2017-11-21T12:08:34.947Z,16.23
2017-11-21T12:11:03.559Z,15.50
2017-11-21T12:13:31.208Z,17.53
2017-11-21T12:15:58.886Z,17.37
2017-11-21T12:18:26.614Z,17.40
2017-11-21T12:20:54.597Z,16.03
2017-11-21T12:23:22.280Z,17.87
2017-11-21T12:25:50.024Z,17.70
2017-11-21T12:28:17.675Z,17.90
2017-11-21T12:30:45.349Z,16.33
2017-11-21T12:33:13.082Z,13.20
2017-11-21T12:35:41.184Z,14.33
2017-11-21T12:38:08.853Z,13.50
2017-11-21T12:40:36.566Z,11.87
2017-11-21T12:43:05.194Z,13.43
2017-11-21T12:45:32.838Z,13.00
2017-11-21T12:48:00.551Z,14.27
2017-11-21T12:50:28.475Z,15.00
2017-11-21T12:52:56.639Z,16.10
2017-11-21T12:55:25.185Z,14.93
2017-11-21T12:57:52.853Z,13.23
2017-11-21T13:02:59.682Z,15.75
2017-11-21T13:05:27.338Z,14.23
2017-11-21T13:07:55.003Z,15.87
2017-11-21T13:10:23.113Z,15.60
2017-11-21T13:12:50.775Z,13.90
2017-11-21T13:15:18.444Z,14.43
2017-11-21T13:17:46.551Z,15.37
2017-11-21T13:20:14.219Z,15.13
2017-11-21T13:22:41.898Z,16.00
2017-11-21T13:25:09.597Z,15.73
2017-11-21T13:27:37.266Z,17.57
2017-11-21T13:30:04.941Z,18.17
2017-11-21T13:32:32.692Z,18.57
2017-11-21T13:35:00.368Z,18.67
2017-11-21T13:37:28.046Z,18.10
2017-11-21T13:39:55.800Z,16.83
2017-11-21T13:42:23.509Z,18.27
2017-11-21T13:44:51.171Z,17.40
2017-11-21T13:47:19.874Z,18.47
2017-11-21T13:49:47.544Z,16.80
2017-11-21T13:52:15.232Z,15.93
2017-11-21T13:54:42.979Z,16.20
2017-11-21T13:57:10.654Z,17.70
2017-11-21T13:59:38.347Z,14.63
2017-11-21T14:02:07.054Z,13.67
2017-11-21T14:07:13.950Z,16.77
2017-11-21T14:09:42.490Z,12.90
2017-11-21T14:12:10.158Z,13.83
2017-11-21T14:14:37.949Z,11.63
2017-11-21T14:17:06.429Z,13.57
2017-11-21T14:19:34.091Z,13.70
2017-11-21T14:22:01.802Z,13.00
2017-11-21T14:24:31.739Z,13.57
2017-11-21T14:26:59.421Z,14.30
2017-11-21T14:29:27.158Z,15.07
2017-11-21T14:31:54.817Z,17.57
2017-11-21T14:34:22.515Z,17.03
2017-11-21T14:36:50.249Z,20.67
2017-11-21T14:39:17.956Z,18.93
2017-11-21T14:41:46.124Z,17.30
2017-11-21T14:44:13.885Z,20.83
2017-11-21T14:46:41.578Z,20.67
2017-11-21T14:49:09.278Z,17.87
2017-11-21T14:51:36.999Z,18.77
2017-11-21T14:54:04.671Z,15.87
2017-11-21T14:56:32.329Z,17.33
2017-11-21T14:59:00.056Z,13.53
2017-11-21T15:01:27.726Z,13.40
2017-11-21T15:03:55.389Z,17.10
2017-11-21T15:06:23.179Z,17.03
2017-11-21T15:08:50.883Z,15.77
2017-11-21T15:11:18.594Z,15.50
2017-11-21T15:13:46.762Z,15.87
2017-11-21T15:16:14.441Z,15.57
2017-11-21T15:18:42.115Z,16.03
2017-11-21T15:21:11.285Z,15.43
2017-11-21T15:23:39.845Z,16.27
2017-11-21T15:28:46.741Z,16.37
2017-11-21T15:31:14.448Z,13.53
2017-11-21T15:33:42.134Z,13.33
2017-11-21T15:36:09.889Z,12.50
2017-11-21T15:38:37.566Z,12.90
2017-11-21T15:41:05.232Z,12.37
2017-11-21T15:43:33.817Z,12.83
2017-11-21T15:46:01.466Z,14.90
2017-11-21T15:48:29.148Z,15.23
2017-11-21T15:50:56.867Z,12.90
2017-11-21T15:53:25.589Z,14.10
2017-11-21T15:55:53.272Z,14.00
2017-11-21T15:58:20.985Z,17.80
2017-11-21T16:00:48.666Z,25.10
2017-11-21T16:03:17.203Z,24.20
2017-11-21T16:05:44.960Z,24.83
2017-11-21T16:08:12.663Z,20.70
2017-11-21T16:10:40.331Z,20.37
2017-11-21T16:13:08.057Z,19.53
2017-11-21T16:15:35.741Z,21.40
2017-11-21T16:18:03.414Z,19.00
2017-11-21T16:20:32.121Z,20.23
2017-11-21T16:22:59.806Z,21.10
2017-11-21T16:25:27.474Z,18.33
2017-11-21T16:27:55.208Z,18.23
2017-11-21T16:30:23.885Z,18.30
2017-11-21T16:32:52.381Z,17.77
2017-11-21T16:35:20.103Z,16.10
2017-11-21T16:37:47.797Z,15.63
2017-11-21T16:40:15.483Z,14.73
2017-11-21T16:42:43.227Z,12.00
2017-11-21T16:45:10.928Z,12.53
2017-11-21T16:50:18.759Z,17.98
2017-11-21T16:52:46.445Z,16.67
2017-11-21T16:55:14.137Z,16.63
2017-11-21T16:57:41.853Z,16.73
2017-11-21T17:00:10.924Z,36.67
2017-11-21T17:02:39.068Z,30.67
2017-11-21T17:05:06.742Z,24.03
2017-11-21T17:07:34.375Z,15.40
2017-11-21T17:10:02.030Z,14.90
2017-11-21T17:12:30.670Z,13.20
2017-11-21T17:14:58.314Z,13.13
2017-11-21T17:17:25.984Z,13.37
2017-11-21T17:19:53.665Z,14.03
2017-11-21T17:22:21.329Z,12.87
2017-11-21T17:24:48.975Z,11.33
2017-11-21T17:27:16.689Z,17.43
2017-11-21T17:29:44.844Z,16.93
2017-11-21T17:32:12.563Z,17.00
2017-11-21T17:34:40.226Z,17.80
2017-11-21T17:37:07.890Z,19.83
2017-11-21T17:39:36.034Z,20.00
2017-11-21T17:42:03.758Z,22.30
2017-11-21T17:44:32.756Z,22.67
2017-11-21T17:47:00.433Z,22.20
2017-11-21T17:52:07.888Z,25.80
2017-11-21T17:54:37.024Z,22.87
2017-11-21T17:57:05.531Z,17.60
2017-11-21T17:59:33.222Z,12.83
2017-11-21T18:02:01.908Z,14.87
2017-11-21T18:04:29.575Z,15.47
2017-11-21T18:06:58.075Z,21.10
2017-11-21T18:09:26.316Z,23.80
2017-11-21T18:11:53.837Z,20.00
2017-11-21T18:14:21.501Z,19.27
2017-11-21T18:16:49.264Z,18.70
2017-11-21T18:19:16.941Z,18.50
2017-11-21T18:21:44.600Z,19.87
2017-11-21T18:24:12.329Z,17.03
2017-11-21T18:26:40.388Z,14.57
2017-11-21T18:29:08.100Z,10.40
2017-11-21T18:31:35.801Z,9.17
2017-11-21T18:34:03.491Z,14.60
2017-11-21T18:36:31.171Z,16.43
2017-11-21T18:38:58.917Z,14.93
2017-11-21T18:41:26.636Z,17.63
2017-11-21T18:46:34.191Z,20.20
2017-11-21T18:49:01.866Z,17.20
2017-11-21T18:51:29.529Z,18.37
2017-11-21T18:53:57.251Z,17.00
2017-11-21T18:56:24.930Z,20.50
2017-11-21T18:58:54.355Z,17.97
2017-11-21T19:01:21.389Z,18.57
2017-11-21T19:03:49.202Z,18.30
2017-11-21T19:06:16.850Z,19.83
2017-11-21T19:08:45.548Z,18.50
2017-11-21T19:11:13.261Z,17.07
2017-11-21T19:13:40.898Z,14.83
2017-11-21T19:16:09.402Z,30.97
2017-11-21T19:18:38.491Z,17.60
2017-11-21T19:21:06.145Z,18.17
2017-11-21T19:23:34.751Z,17.17
2017-11-21T19:26:02.877Z,13.20
2017-11-21T19:28:30.539Z,18.73
2017-11-21T19:30:58.260Z,27.20
2017-11-21T19:33:25.922Z,19.77
2017-11-21T19:35:53.618Z,19.70
2017-11-21T19:38:21.786Z,19.97
2017-11-21T19:40:49.775Z,23.53
2017-11-21T19:43:17.354Z,32.43
2017-11-21T19:45:45.082Z,23.87
2017-11-21T19:48:12.785Z,27.70
2017-11-21T19:50:40.453Z,18.07
2017-11-21T19:53:08.187Z,14.13
2017-11-21T19:55:35.816Z,18.30
2017-11-21T19:58:03.478Z,21.77
2017-11-21T20:00:31.206Z,18.20
2017-11-21T20:05:51.841Z,30.37
2017-11-21T20:08:19.501Z,30.57
2017-11-21T20:10:47.713Z,37.73
2017-11-21T20:13:15.729Z,30.57
2017-11-21T20:15:43.629Z,35.30
2017-11-21T20:18:12.298Z,46.77
2017-11-21T20:20:40.325Z,42.23
2017-11-21T20:23:08.316Z,47.60
2017-11-21T20:25:36.069Z,92.20
2017-11-21T20:28:04.114Z,66.90
2017-11-21T20:30:31.739Z,21.23
2017-11-21T20:32:59.428Z,17.23
2017-11-21T20:35:27.577Z,22.37
2017-11-21T20:37:55.130Z,8.43
2017-11-21T20:40:22.908Z,6.40
2017-11-21T20:42:51.050Z,6.07
2017-11-21T20:45:18.886Z,9.00
2017-11-21T20:47:46.585Z,14.83
2017-11-21T20:50:14.616Z,13.40
2017-11-21T20:52:42.322Z,23.13
2017-11-21T20:55:10.289Z,26.07
2017-11-21T20:57:38.053Z,22.17
2017-11-21T21:00:05.782Z,39.67
2017-11-21T21:02:33.698Z,42.83
2017-11-21T21:05:01.381Z,21.10
2017-11-21T21:07:29.145Z,18.90
2017-11-21T21:12:45.327Z,19.63
2017-11-21T21:15:27.477Z,16.67
2017-11-21T21:17:55.326Z,16.50
2017-11-21T21:26:02.289Z,31.23
2017-11-21T21:33:48.000Z,40.53
2017-11-21T21:36:15.876Z,27.30
2017-11-21T21:38:43.515Z,31.30
2017-11-21T21:41:11.249Z,22.40
2017-11-21T21:43:39.000Z,23.17
2017-11-21T21:46:06.656Z,34.53
2017-11-21T21:48:35.142Z,36.23
2017-11-21T21:51:23.095Z,24.77
2017-11-21T22:02:05.550Z,35.60
2017-11-21T22:04:33.204Z,30.67
2017-11-21T22:07:00.886Z,25.67
2017-11-21T22:09:28.608Z,52.87
2017-11-21T22:11:56.251Z,20.57
2017-11-21T22:14:23.885Z,21.37
2017-11-21T22:16:51.586Z,24.67
2017-11-21T22:19:19.223Z,21.07
2017-11-21T22:21:46.847Z,21.63
2017-11-21T22:24:14.536Z,22.60
2017-11-21T22:26:42.177Z,22.37
2017-11-21T22:29:09.805Z,24.57
2017-11-21T22:31:37.496Z,20.43
2017-11-21T22:34:05.143Z,22.33
2017-11-21T22:36:32.790Z,23.67
2017-11-21T22:39:00.499Z,19.00
2017-11-21T22:41:28.671Z,17.43
2017-11-21T22:43:56.301Z,21.67
2017-11-21T22:46:23.993Z,21.63
2017-11-21T22:48:51.634Z,22.70
2017-11-21T22:51:19.266Z,19.53
2017-11-21T22:53:46.998Z,20.50
2017-11-21T22:56:14.639Z,21.70
2017-11-21T22:58:42.275Z,15.10
2017-11-21T23:01:09.965Z,15.30
2017-11-21T23:03:37.611Z,24.43
2017-11-21T23:06:05.265Z,16.87
2017-11-21T23:08:32.963Z,22.87
2017-11-21T23:11:00.620Z,17.37
2017-11-21T23:13:28.257Z,16.73
2017-11-21T23:15:55.983Z,18.43
2017-11-21T23:18:24.094Z,17.33
2017-11-21T23:20:51.745Z,18.70
2017-11-21T23:26:02.635Z,24.42
2017-11-21T23:28:30.336Z,18.60
2017-11-21T23:30:57.991Z,15.97
2017-11-21T23:33:26.119Z,29.83
2017-11-21T23:35:54.670Z,14.53
2017-11-21T23:38:23.139Z,14.50
2017-11-21T23:40:50.803Z,16.03
2017-11-21T23:43:24.728Z,13.90
2017-11-21T23:45:52.389Z,41.43
2017-11-21T23:48:20.036Z,33.17
2017-11-21T23:53:30.123Z,23.05
2017-11-21T23:55:57.827Z,18.13
2017-11-21T23:58:25.927Z,17.47
